Chesapeake — WDD3041 — position and weather

sailwx.info

Track history (hours):
 
Tides and Currents Weather Stations Pressure Air Temp Water Temp Dewpoint Dewpoint Depression Visibility Wind Speed Wind Dir Waves Ship Positions

Chesapeake

Owner: Vane Line Bunkering, Baltimore, MD. More information available from US FCC via Universal Licensing System and Coast Guard Vessel Documentation Center.

Last reported at 2016-Jul-24 02:33 UTC. Time now 2016-Jul-24 02:54 UTC.
Position N 39°33' W 074°05'.

Length 34 m.

Type: Tug. MMSI: 367123040.

Date/timePositionNaut miles runAvg speedWind from/ knotsBaromVisibWave heightAir tempDewpointWater temp
2016-Jul-24 02:33N 39°33' W 074°05'10 9.9
2016-Jul-24 01:33N 39°42' W 074°00'10 9.7
2016-Jul-24 00:33N 39°52' W 073°58'38 9.5
2016-Jul-23 20:33N 40°30' W 073°56'10 9.8
2016-Jul-23 19:34N 40°38' W 074°03'1010.4
2016-Jul-23 18:33N 40°48' W 073°59'5 0.1
2016-Jul-22 04:33N 40°44' W 074°01'6 6.4
2016-Jul-22 03:33N 40°37' W 074°03'5 5.2
2016-Jul-22 02:33N 40°32' W 074°01'7 7.3
2016-Jul-22 01:33N 40°28' W 073°53'28 8.8
2016-Jul-21 22:25N 40°01' W 073°56'8 9.0
2016-Jul-21 21:33N 39°53' W 073°57'9 8.8
2016-Jul-21 20:33N 39°44' W 073°59'9 8.6
2016-Jul-21 19:32N 39°36' W 074°03'8 8.5
2016-Jul-21 18:33N 39°29' W 074°08'8 8.4
2016-Jul-21 17:33N 39°22' W 074°15'9 8.5
2016-Jul-21 16:33N 39°16' W 074°22'27 8.5
2016-Jul-21 13:23N 38°55' W 074°45'7 8.3
2016-Jul-21 12:33N 38°50' W 074°51'12 5.6
2016-Jul-21 10:29N 38°54' W 075°05'7 7.1
2016-Jul-21 09:28N 39°00' W 075°09'8 8.5
2016-Jul-21 08:33N 39°07' W 075°13'1111.4
2016-Jul-21 07:33N 39°17' W 075°22'1111.0
2016-Jul-21 06:33N 39°25' W 075°31'9 8.9
2016-Jul-21 05:33N 39°34' W 075°33'7 7.0
2016-Jul-21 04:33N 39°41' W 075°31'7 7.3
2016-Jul-21 03:33N 39°47' W 075°27'7 7.1
2016-Jul-21 02:33N 39°51' W 075°19'4 4.1
2016-Jul-21 01:34N 39°52' W 075°14'3 2.6
2016-Jul-21 00:33N 39°54' W 075°12'0 0.0
2016-Jul-20 23:33N 39°54' W 075°12'0 0.0
2016-Jul-20 22:33N 39°54' W 075°12'0 0.0
2016-Jul-20 21:33N 39°54' W 075°12'0 0.0
2016-Jul-20 20:33N 39°54' W 075°12'0 0.0
2016-Jul-20 19:33N 39°54' W 075°12'1 0.6
2016-Jul-20 18:33N 39°54' W 075°12'0 0.1
2016-Jul-20 17:33N 39°54' W 075°12'0 0.0
2016-Jul-20 16:33N 39°54' W 075°12'0 0.0
2016-Jul-20 15:33N 39°54' W 075°12'0 0.0
2016-Jul-20 14:33N 39°54' W 075°12'0 0.0
2016-Jul-20 13:34N 39°54' W 075°12'0 0.1
2016-Jul-20 12:33N 39°54' W 075°12'0 0.0
2016-Jul-20 11:33N 39°54' W 075°12'0 0.0
2016-Jul-20 10:33N 39°54' W 075°12'0 0.0
2016-Jul-20 09:34N 39°54' W 075°12'0 0.0
2016-Jul-20 08:33N 39°54' W 075°12'0 0.0
2016-Jul-20 07:34N 39°54' W 075°12'0 0.0
2016-Jul-20 06:34N 39°54' W 075°12'0 0.0
2016-Jul-20 05:33N 39°54' W 075°12'0 0.0
2016-Jul-20 04:33N 39°54' W 075°12'0 0.0
2016-Jul-20 03:33N 39°54' W 075°12'1 1.4
2016-Jul-20 02:33N 39°52' W 075°13'2 2.5
2016-Jul-20 01:33N 39°51' W 075°15'2 1.6
2016-Jul-20 00:33N 39°52' W 075°14'0 0.0
2016-Jul-19 23:33N 39°51' W 075°14'0 0.0
2016-Jul-19 22:33N 39°51' W 075°14'0 0.0
2016-Jul-19 21:33N 39°51' W 075°14'0 0.0
2016-Jul-19 20:33N 39°51' W 075°14'0 0.0
2016-Jul-19 19:33N 39°51' W 075°13'0 0.1
2016-Jul-19 18:33N 39°52' W 075°13'0 0.0
2016-Jul-19 17:33N 39°52' W 075°13'0 0.0
2016-Jul-19 16:33N 39°52' W 075°13'0 0.0
2016-Jul-19 15:33N 39°52' W 075°13'0 0.0
2016-Jul-19 14:33N 39°52' W 075°13'0 0.1
2016-Jul-19 13:33N 39°52' W 075°13'0 0.1
2016-Jul-19 12:33N 39°52' W 075°14'0 0.0
2016-Jul-19 11:33N 39°52' W 075°14'0 0.0
2016-Jul-19 10:33N 39°52' W 075°14'0 0.0
2016-Jul-19 09:33N 39°52' W 075°14'0 0.0
2016-Jul-19 08:33N 39°52' W 075°14'0 0.1
2016-Jul-19 07:33N 39°52' W 075°14'0 0.1
2016-Jul-19 04:33N 39°52' W 075°13'0 0.0
2016-Jul-19 03:33N 39°52' W 075°13'0 0.0
2016-Jul-19 02:33N 39°52' W 075°13'0 0.0
2016-Jul-19 01:33N 39°52' W 075°13'0 0.1
2016-Jul-19 00:33N 39°52' W 075°14'0 0.1
2016-Jul-18 23:33N 39°52' W 075°14'0 0.1
2016-Jul-18 22:33N 39°52' W 075°14'0 0.1
2016-Jul-18 21:33N 39°52' W 075°14'0 0.1
2016-Jul-18 20:33N 39°52' W 075°14'0 0.2
2016-Jul-18 19:33N 39°52' W 075°14'0 0.1
2016-Jul-18 18:33N 39°52' W 075°13'2 2.1
2016-Jul-18 17:33N 39°54' W 075°12'0 0.0
2016-Jul-18 16:33N 39°54' W 075°12'0 0.0
2016-Jul-18 15:33N 39°54' W 075°12'0 0.0
2016-Jul-18 14:33N 39°54' W 075°12'1 0.7
2016-Jul-18 13:33N 39°53' W 075°12'2 2.1
2016-Jul-18 12:33N 39°52' W 075°14'0 0.1
2016-Jul-18 11:33N 39°52' W 075°14'0 0.0
2016-Jul-18 10:33N 39°52' W 075°14'0 0.0
2016-Jul-18 09:33N 39°52' W 075°14'0 0.0
2016-Jul-18 08:33N 39°52' W 075°14'0 0.0
2016-Jul-18 07:33N 39°52' W 075°14'0 0.1
2016-Jul-18 06:33N 39°52' W 075°14'0 0.1
2016-Jul-18 05:33N 39°52' W 075°13'0 0.0
2016-Jul-18 04:33N 39°52' W 075°13'0 0.0
2016-Jul-18 03:33N 39°52' W 075°13'0 0.0
2016-Jul-18 02:33N 39°52' W 075°13'0 0.0
2016-Jul-18 01:33N 39°52' W 075°13'0 0.0
2016-Jul-18 00:33N 39°52' W 075°13'0 0.1
2016-Jul-17 23:33N 39°52' W 075°13'0 0.0
2016-Jul-17 22:33N 39°52' W 075°13'0 0.1
2016-Jul-17 21:33N 39°52' W 075°13'0 0.0
2016-Jul-17 20:33N 39°52' W 075°13'0 0.0
2016-Jul-17 19:33N 39°52' W 075°14'0 0.0
2016-Jul-17 18:34N 39°52' W 075°13'0 0.1
2016-Jul-17 17:33N 39°52' W 075°13'0 0.0
2016-Jul-17 16:33N 39°52' W 075°13'0 0.0
2016-Jul-17 15:33N 39°52' W 075°13'0 0.0
2016-Jul-17 14:33N 39°52' W 075°13'0 0.0
2016-Jul-17 13:33N 39°52' W 075°13'0 0.0
2016-Jul-17 12:33N 39°52' W 075°13'0 0.2
2016-Jul-17 11:33N 39°52' W 075°14'0 0.0
2016-Jul-17 10:33N 39°52' W 075°14'0 0.0
2016-Jul-17 09:33N 39°52' W 075°14'0 0.0
2016-Jul-17 08:33N 39°52' W 075°14'0 0.0
2016-Jul-17 07:33N 39°52' W 075°14'0 0.0
2016-Jul-17 06:33N 39°52' W 075°14'0 0.1
2016-Jul-17 04:33N 39°52' W 075°13'0 0.0
2016-Jul-17 03:33N 39°52' W 075°13'0 0.0
2016-Jul-17 02:33N 39°52' W 075°13'0 0.0
2016-Jul-17 01:33N 39°52' W 075°13'0 0.0
2016-Jul-17 00:33N 39°52' W 075°13'0 0.1
2016-Jul-16 23:33N 39°52' W 075°14'0 0.1
2016-Jul-16 22:33N 39°52' W 075°14'0 0.0
2016-Jul-16 21:33N 39°52' W 075°14'0 0.1
2016-Jul-16 20:33N 39°51' W 075°14'0 0.1
2016-Jul-16 19:33N 39°52' W 075°14'0 0.1
2016-Jul-16 18:33N 39°52' W 075°14'0 0.1
2016-Jul-16 17:33N 39°52' W 075°13'0 0.1
2016-Jul-16 16:33N 39°52' W 075°13'0 0.0
2016-Jul-16 15:34N 39°52' W 075°13'0 0.0
2016-Jul-16 14:33N 39°52' W 075°13'0 0.0
2016-Jul-16 13:33N 39°52' W 075°13'0 0.0
2016-Jul-16 12:33N 39°52' W 075°13'0 0.0
2016-Jul-16 11:34N 39°52' W 075°13'0 0.2
2016-Jul-16 10:33N 39°52' W 075°14'0 0.0
2016-Jul-16 09:33N 39°52' W 075°14'0 0.0
2016-Jul-16 08:33N 39°52' W 075°14'0 0.0
2016-Jul-16 07:33N 39°52' W 075°14'0 0.0
2016-Jul-16 06:33N 39°52' W 075°14'0 0.1
2016-Jul-16 04:33N 39°52' W 075°13'0 0.0
2016-Jul-16 03:33N 39°52' W 075°13'0 0.0
2016-Jul-16 02:33N 39°52' W 075°13'0 0.0
2016-Jul-16 01:33N 39°52' W 075°13'0 0.0
2016-Jul-16 00:34N 39°52' W 075°13'0 0.0
2016-Jul-15 23:33N 39°52' W 075°13'0 0.0
2016-Jul-15 22:33N 39°52' W 075°13'0 0.0
2016-Jul-15 21:33N 39°52' W 075°13'0 0.1
2016-Jul-15 20:33N 39°52' W 075°13'0 0.0
2016-Jul-15 19:33N 39°52' W 075°13'0 0.0
2016-Jul-15 18:33N 39°52' W 075°13'0 0.1
2016-Jul-15 17:33N 39°52' W 075°14'0 0.1
2016-Jul-15 16:33N 39°52' W 075°13'0 0.1
2016-Jul-15 15:33N 39°52' W 075°13'0 0.0
2016-Jul-15 14:33N 39°52' W 075°13'0 0.0
2016-Jul-15 13:33N 39°52' W 075°13'0 0.0
2016-Jul-15 12:33N 39°52' W 075°13'0 0.0
2016-Jul-15 11:33N 39°52' W 075°13'0 0.0
2016-Jul-15 10:33N 39°52' W 075°13'0 0.2
2016-Jul-15 09:33N 39°52' W 075°14'0 0.0
2016-Jul-15 08:33N 39°52' W 075°14'0 0.0
2016-Jul-15 07:33N 39°52' W 075°14'0 0.0
2016-Jul-15 06:33N 39°52' W 075°14'0 0.0
2016-Jul-15 05:33N 39°52' W 075°14'0 0.1
2016-Jul-15 04:33N 39°52' W 075°14'0 0.1
2016-Jul-15 03:33N 39°52' W 075°14'0 0.1
2016-Jul-15 02:33N 39°52' W 075°13'0 0.0
2016-Jul-15 01:34N 39°52' W 075°13'0 0.0
2016-Jul-15 00:33N 39°52' W 075°13'0 0.0
2016-Jul-14 23:33N 39°52' W 075°13'0 0.0
2016-Jul-14 22:33N 39°52' W 075°13'0 0.0
2016-Jul-14 21:33N 39°52' W 075°13'0 0.0
2016-Jul-14 20:33N 39°52' W 075°13'0 0.1
2016-Jul-14 19:33N 39°52' W 075°14'0 0.1
2016-Jul-14 18:33N 39°52' W 075°14'0 0.1
2016-Jul-14 17:33N 39°52' W 075°14'0 0.0
2016-Jul-14 16:34N 39°52' W 075°14'0 0.1
2016-Jul-14 15:33N 39°52' W 075°14'0 0.1
2016-Jul-14 14:33N 39°52' W 075°13'2 2.3
2016-Jul-14 13:33N 39°51' W 075°16'0 0.0
2016-Jul-14 12:33N 39°51' W 075°16'2 2.3
2016-Jul-14 11:33N 39°52' W 075°13'0 0.1
2016-Jul-14 10:33N 39°52' W 075°13'0 0.1
2016-Jul-14 09:33N 39°52' W 075°13'0 0.1
2016-Jul-14 08:33N 39°52' W 075°14'0 0.0
2016-Jul-14 07:33N 39°52' W 075°14'0 0.0
2016-Jul-14 06:34N 39°52' W 075°14'0 0.0
2016-Jul-14 05:33N 39°52' W 075°14'0 0.0
2016-Jul-14 04:33N 39°52' W 075°14'0 0.0
2016-Jul-14 03:33N 39°52' W 075°14'0 0.0
2016-Jul-14 02:33N 39°52' W 075°14'  
Track history (hours):
 
Tides and Currents Weather Stations Pressure Air Temp Water Temp Dewpoint Dewpoint Depression Visibility Wind Speed Wind Dir Waves Ship Positions

Chesapeake

Owner: Vane Line Bunkering, Baltimore, MD. More information available from US FCC via Universal Licensing System and Coast Guard Vessel Documentation Center.

Last reported at 2016-Jul-24 02:33 UTC. Time now 2016-Jul-24 02:54 UTC.
Position N 39°33' W 074°05'.

Length 34 m.

Type: Tug. MMSI: 367123040.

Date/timePositionNaut miles runAvg speedWind from/ knotsBaromVisibWave heightAir tempDewpointWater temp
2016-Jul-24 02:33N 39°33' W 074°05'10 9.9
2016-Jul-24 01:33N 39°42' W 074°00'10 9.7
2016-Jul-24 00:33N 39°52' W 073°58'38 9.5
2016-Jul-23 20:33N 40°30' W 073°56'10 9.8
2016-Jul-23 19:34N 40°38' W 074°03'1010.4
2016-Jul-23 18:33N 40°48' W 073°59'5 0.1
2016-Jul-22 04:33N 40°44' W 074°01'6 6.4
2016-Jul-22 03:33N 40°37' W 074°03'5 5.2
2016-Jul-22 02:33N 40°32' W 074°01'7 7.3
2016-Jul-22 01:33N 40°28' W 073°53'28 8.8
2016-Jul-21 22:25N 40°01' W 073°56'8 9.0
2016-Jul-21 21:33N 39°53' W 073°57'9 8.8
2016-Jul-21 20:33N 39°44' W 073°59'9 8.6
2016-Jul-21 19:32N 39°36' W 074°03'8 8.5
2016-Jul-21 18:33N 39°29' W 074°08'8 8.4
2016-Jul-21 17:33N 39°22' W 074°15'9 8.5
2016-Jul-21 16:33N 39°16' W 074°22'27 8.5
2016-Jul-21 13:23N 38°55' W 074°45'7 8.3
2016-Jul-21 12:33N 38°50' W 074°51'12 5.6
2016-Jul-21 10:29N 38°54' W 075°05'7 7.1
2016-Jul-21 09:28N 39°00' W 075°09'8 8.5
2016-Jul-21 08:33N 39°07' W 075°13'1111.4
2016-Jul-21 07:33N 39°17' W 075°22'1111.0
2016-Jul-21 06:33N 39°25' W 075°31'9 8.9
2016-Jul-21 05:33N 39°34' W 075°33'7 7.0
2016-Jul-21 04:33N 39°41' W 075°31'7 7.3
2016-Jul-21 03:33N 39°47' W 075°27'7 7.1
2016-Jul-21 02:33N 39°51' W 075°19'4 4.1
2016-Jul-21 01:34N 39°52' W 075°14'3 2.6
2016-Jul-21 00:33N 39°54' W 075°12'0 0.0
2016-Jul-20 23:33N 39°54' W 075°12'0 0.0
2016-Jul-20 22:33N 39°54' W 075°12'0 0.0
2016-Jul-20 21:33N 39°54' W 075°12'0 0.0
2016-Jul-20 20:33N 39°54' W 075°12'0 0.0
2016-Jul-20 19:33N 39°54' W 075°12'1 0.6
2016-Jul-20 18:33N 39°54' W 075°12'0 0.1
2016-Jul-20 17:33N 39°54' W 075°12'0 0.0
2016-Jul-20 16:33N 39°54' W 075°12'0 0.0
2016-Jul-20 15:33N 39°54' W 075°12'0 0.0
2016-Jul-20 14:33N 39°54' W 075°12'0 0.0
2016-Jul-20 13:34N 39°54' W 075°12'0 0.1
2016-Jul-20 12:33N 39°54' W 075°12'0 0.0
2016-Jul-20 11:33N 39°54' W 075°12'0 0.0
2016-Jul-20 10:33N 39°54' W 075°12'0 0.0
2016-Jul-20 09:34N 39°54' W 075°12'0 0.0
2016-Jul-20 08:33N 39°54' W 075°12'0 0.0
2016-Jul-20 07:34N 39°54' W 075°12'0 0.0
2016-Jul-20 06:34N 39°54' W 075°12'0 0.0
2016-Jul-20 05:33N 39°54' W 075°12'0 0.0
2016-Jul-20 04:33N 39°54' W 075°12'0 0.0
2016-Jul-20 03:33N 39°54' W 075°12'1 1.4
2016-Jul-20 02:33N 39°52' W 075°13'2 2.5
2016-Jul-20 01:33N 39°51' W 075°15'2 1.6
2016-Jul-20 00:33N 39°52' W 075°14'0 0.0
2016-Jul-19 23:33N 39°51' W 075°14'0 0.0
2016-Jul-19 22:33N 39°51' W 075°14'0 0.0
2016-Jul-19 21:33N 39°51' W 075°14'0 0.0
2016-Jul-19 20:33N 39°51' W 075°14'0 0.0
2016-Jul-19 19:33N 39°51' W 075°13'0 0.1
2016-Jul-19 18:33N 39°52' W 075°13'0 0.0
2016-Jul-19 17:33N 39°52' W 075°13'0 0.0
2016-Jul-19 16:33N 39°52' W 075°13'0 0.0
2016-Jul-19 15:33N 39°52' W 075°13'0 0.0
2016-Jul-19 14:33N 39°52' W 075°13'0 0.1
2016-Jul-19 13:33N 39°52' W 075°13'0 0.1
2016-Jul-19 12:33N 39°52' W 075°14'0 0.0
2016-Jul-19 11:33N 39°52' W 075°14'0 0.0
2016-Jul-19 10:33N 39°52' W 075°14'0 0.0
2016-Jul-19 09:33N 39°52' W 075°14'0 0.0
2016-Jul-19 08:33N 39°52' W 075°14'0 0.1
2016-Jul-19 07:33N 39°52' W 075°14'0 0.1
2016-Jul-19 04:33N 39°52' W 075°13'0 0.0
2016-Jul-19 03:33N 39°52' W 075°13'0 0.0
2016-Jul-19 02:33N 39°52' W 075°13'0 0.0
2016-Jul-19 01:33N 39°52' W 075°13'0 0.1
2016-Jul-19 00:33N 39°52' W 075°14'0 0.1
2016-Jul-18 23:33N 39°52' W 075°14'0 0.1
2016-Jul-18 22:33N 39°52' W 075°14'0 0.1
2016-Jul-18 21:33N 39°52' W 075°14'0 0.1
2016-Jul-18 20:33N 39°52' W 075°14'0 0.2
2016-Jul-18 19:33N 39°52' W 075°14'0 0.1
2016-Jul-18 18:33N 39°52' W 075°13'2 2.1
2016-Jul-18 17:33N 39°54' W 075°12'0 0.0
2016-Jul-18 16:33N 39°54' W 075°12'0 0.0
2016-Jul-18 15:33N 39°54' W 075°12'0 0.0
2016-Jul-18 14:33N 39°54' W 075°12'1 0.7
2016-Jul-18 13:33N 39°53' W 075°12'2 2.1
2016-Jul-18 12:33N 39°52' W 075°14'0 0.1
2016-Jul-18 11:33N 39°52' W 075°14'0 0.0
2016-Jul-18 10:33N 39°52' W 075°14'0 0.0
2016-Jul-18 09:33N 39°52' W 075°14'0 0.0
2016-Jul-18 08:33N 39°52' W 075°14'0 0.0
2016-Jul-18 07:33N 39°52' W 075°14'0 0.1
2016-Jul-18 06:33N 39°52' W 075°14'0 0.1
2016-Jul-18 05:33N 39°52' W 075°13'0 0.0
2016-Jul-18 04:33N 39°52' W 075°13'0 0.0
2016-Jul-18 03:33N 39°52' W 075°13'0 0.0
2016-Jul-18 02:33N 39°52' W 075°13'0 0.0
2016-Jul-18 01:33N 39°52' W 075°13'0 0.0
2016-Jul-18 00:33N 39°52' W 075°13'0 0.1
2016-Jul-17 23:33N 39°52' W 075°13'0 0.0
2016-Jul-17 22:33N 39°52' W 075°13'0 0.1
2016-Jul-17 21:33N 39°52' W 075°13'0 0.0
2016-Jul-17 20:33N 39°52' W 075°13'0 0.0
2016-Jul-17 19:33N 39°52' W 075°14'0 0.0
2016-Jul-17 18:34N 39°52' W 075°13'0 0.1
2016-Jul-17 17:33N 39°52' W 075°13'0 0.0
2016-Jul-17 16:33N 39°52' W 075°13'0 0.0
2016-Jul-17 15:33N 39°52' W 075°13'0 0.0
2016-Jul-17 14:33N 39°52' W 075°13'0 0.0
2016-Jul-17 13:33N 39°52' W 075°13'0 0.0
2016-Jul-17 12:33N 39°52' W 075°13'0 0.2
2016-Jul-17 11:33N 39°52' W 075°14'0 0.0
2016-Jul-17 10:33N 39°52' W 075°14'0 0.0
2016-Jul-17 09:33N 39°52' W 075°14'0 0.0
2016-Jul-17 08:33N 39°52' W 075°14'0 0.0
2016-Jul-17 07:33N 39°52' W 075°14'0 0.0
2016-Jul-17 06:33N 39°52' W 075°14'0 0.1
2016-Jul-17 04:33N 39°52' W 075°13'0 0.0
2016-Jul-17 03:33N 39°52' W 075°13'0 0.0
2016-Jul-17 02:33N 39°52' W 075°13'0 0.0
2016-Jul-17 01:33N 39°52' W 075°13'0 0.0
2016-Jul-17 00:33N 39°52' W 075°13'0 0.1
2016-Jul-16 23:33N 39°52' W 075°14'0 0.1
2016-Jul-16 22:33N 39°52' W 075°14'0 0.0
2016-Jul-16 21:33N 39°52' W 075°14'0 0.1
2016-Jul-16 20:33N 39°51' W 075°14'0 0.1
2016-Jul-16 19:33N 39°52' W 075°14'0 0.1
2016-Jul-16 18:33N 39°52' W 075°14'0 0.1
2016-Jul-16 17:33N 39°52' W 075°13'0 0.1
2016-Jul-16 16:33N 39°52' W 075°13'0 0.0
2016-Jul-16 15:34N 39°52' W 075°13'0 0.0
2016-Jul-16 14:33N 39°52' W 075°13'0 0.0
2016-Jul-16 13:33N 39°52' W 075°13'0 0.0
2016-Jul-16 12:33N 39°52' W 075°13'0 0.0
2016-Jul-16 11:34N 39°52' W 075°13'0 0.2
2016-Jul-16 10:33N 39°52' W 075°14'0 0.0
2016-Jul-16 09:33N 39°52' W 075°14'0 0.0
2016-Jul-16 08:33N 39°52' W 075°14'0 0.0
2016-Jul-16 07:33N 39°52' W 075°14'0 0.0
2016-Jul-16 06:33N 39°52' W 075°14'0 0.1
2016-Jul-16 04:33N 39°52' W 075°13'0 0.0
2016-Jul-16 03:33N 39°52' W 075°13'0 0.0
2016-Jul-16 02:33N 39°52' W 075°13'0 0.0
2016-Jul-16 01:33N 39°52' W 075°13'0 0.0
2016-Jul-16 00:34N 39°52' W 075°13'0 0.0
2016-Jul-15 23:33N 39°52' W 075°13'0 0.0
2016-Jul-15 22:33N 39°52' W 075°13'0 0.0
2016-Jul-15 21:33N 39°52' W 075°13'0 0.1
2016-Jul-15 20:33N 39°52' W 075°13'0 0.0
2016-Jul-15 19:33N 39°52' W 075°13'0 0.0
2016-Jul-15 18:33N 39°52' W 075°13'0 0.1
2016-Jul-15 17:33N 39°52' W 075°14'0 0.1
2016-Jul-15 16:33N 39°52' W 075°13'0 0.1
2016-Jul-15 15:33N 39°52' W 075°13'0 0.0
2016-Jul-15 14:33N 39°52' W 075°13'0 0.0
2016-Jul-15 13:33N 39°52' W 075°13'0 0.0
2016-Jul-15 12:33N 39°52' W 075°13'0 0.0
2016-Jul-15 11:33N 39°52' W 075°13'0 0.0
2016-Jul-15 10:33N 39°52' W 075°13'0 0.2
2016-Jul-15 09:33N 39°52' W 075°14'0 0.0
2016-Jul-15 08:33N 39°52' W 075°14'0 0.0
2016-Jul-15 07:33N 39°52' W 075°14'0 0.0
2016-Jul-15 06:33N 39°52' W 075°14'0 0.0
2016-Jul-15 05:33N 39°52' W 075°14'0 0.1
2016-Jul-15 04:33N 39°52' W 075°14'0 0.1
2016-Jul-15 03:33N 39°52' W 075°14'0 0.1
2016-Jul-15 02:33N 39°52' W 075°13'0 0.0
2016-Jul-15 01:34N 39°52' W 075°13'0 0.0
2016-Jul-15 00:33N 39°52' W 075°13'0 0.0
2016-Jul-14 23:33N 39°52' W 075°13'0 0.0
2016-Jul-14 22:33N 39°52' W 075°13'0 0.0
2016-Jul-14 21:33N 39°52' W 075°13'0 0.0
2016-Jul-14 20:33N 39°52' W 075°13'0 0.1
2016-Jul-14 19:33N 39°52' W 075°14'0 0.1
2016-Jul-14 18:33N 39°52' W 075°14'0 0.1
2016-Jul-14 17:33N 39°52' W 075°14'0 0.0
2016-Jul-14 16:34N 39°52' W 075°14'0 0.1
2016-Jul-14 15:33N 39°52' W 075°14'0 0.1
2016-Jul-14 14:33N 39°52' W 075°13'2 2.3
2016-Jul-14 13:33N 39°51' W 075°16'0 0.0
2016-Jul-14 12:33N 39°51' W 075°16'2 2.3
2016-Jul-14 11:33N 39°52' W 075°13'0 0.1
2016-Jul-14 10:33N 39°52' W 075°13'0 0.1
2016-Jul-14 09:33N 39°52' W 075°13'0 0.1
2016-Jul-14 08:33N 39°52' W 075°14'0 0.0
2016-Jul-14 07:33N 39°52' W 075°14'0 0.0
2016-Jul-14 06:34N 39°52' W 075°14'0 0.0
2016-Jul-14 05:33N 39°52' W 075°14'0 0.0
2016-Jul-14 04:33N 39°52' W 075°14'0 0.0
2016-Jul-14 03:33N 39°52' W 075°14'0 0.0
2016-Jul-14 02:33N 39°52' W 075°14'  

Dump ship's entire track history